Time;durP1;ratioP1;P1;durP2;ratioP2;P2;SDS_P1;SDS_P2;PMS_P1;PMS_P2;Temp;Humidity;BMP_temperature;BMP_pressure;BME280_temperature;BME280_humidity;BME280_pressure;Samples;Min_cycle;Max_cycle;Signal;HPM_P1;HPM_P2
2022/04/17 00:00:25;;;;;;;7.43;4.18;;;6.40;99.90;;;;;;5032819;28;20041;-70
2022/04/17 00:02:51;;;;;;;6.78;3.97;;;6.40;99.90;;;;;;5040972;28;20044;-71
2022/04/17 00:05:17;;;;;;;7.30;3.97;;;6.30;99.90;;;;;;5039252;28;20548;-70
2022/04/17 00:07:44;;;;;;;9.88;3.88;;;6.30;99.90;;;;;;5033472;28;20509;-70
2022/04/17 00:10:09;;;;;;;7.65;4.07;;;6.30;99.90;;;;;;5034481;28;20033;-70
2022/04/17 00:12:36;;;;;;;6.25;3.67;;;6.30;99.90;;;;;;5036446;28;20115;-70
2022/04/17 00:15:03;;;;;;;7.88;4.28;;;6.30;99.90;;;;;;5042917;28;20047;-70
2022/04/17 00:17:29;;;;;;;7.70;4.00;;;6.30;99.90;;;;;;5045737;28;20588;-71
2022/04/17 00:19:55;;;;;;;8.50;4.35;;;6.20;99.90;;;;;;5040457;28;20107;-70
2022/04/17 00:22:21;;;;;;;6.60;3.95;;;6.20;99.90;;;;;;5036389;28;20041;-71
2022/04/17 00:24:46;;;;;;;7.15;4.10;;;6.20;99.90;;;;;;5021767;28;20041;-70
2022/04/17 00:27:12;;;;;;;7.68;4.30;;;6.20;99.90;;;;;;5032792;28;20049;-70
2022/04/17 00:29:37;;;;;;;7.75;3.70;;;6.20;99.90;;;;;;5040645;28;20529;-70
2022/04/17 00:32:03;;;;;;;7.90;4.00;;;6.20;99.90;;;;;;5040592;28;20041;-71
2022/04/17 00:34:30;;;;;;;8.32;4.30;;;6.10;99.90;;;;;;5037587;28;20045;-71
2022/04/17 00:36:59;;;;;;;7.78;4.40;;;6.10;99.90;;;;;;5048269;28;20037;-71
2022/04/17 00:39:25;;;;;;;12.50;5.13;;;6.00;99.90;;;;;;5039101;28;20059;-70
2022/04/17 00:41:52;;;;;;;8.60;4.35;;;6.00;99.90;;;;;;5041078;28;20048;-70
2022/04/17 00:44:17;;;;;;;8.70;4.47;;;6.00;99.90;;;;;;5038818;28;20554;-71
2022/04/17 00:46:43;;;;;;;7.97;4.45;;;5.90;99.90;;;;;;5049598;28;20037;-70
2022/04/17 00:49:09;;;;;;;6.93;4.50;;;5.90;99.90;;;;;;5048466;28;20127;-70
2022/04/17 00:51:36;;;;;;;8.95;4.90;;;5.90;99.90;;;;;;5044601;28;20061;-71
2022/04/17 00:54:07;;;;;;;12.73;5.15;;;5.90;99.90;;;;;;5041537;28;20036;-70
2022/04/17 00:56:34;;;;;;;6.90;4.47;;;5.90;99.90;;;;;;5045199;28;20123;-70
2022/04/17 00:59:02;;;;;;;8.48;4.50;;;5.80;99.90;;;;;;5035832;28;20057;-70
2022/04/17 01:01:33;;;;;;;8.23;4.63;;;5.80;99.90;;;;;;5039599;28;20168;-71
2022/04/17 01:03:59;;;;;;;8.43;4.60;;;5.70;99.90;;;;;;5039971;28;20060;-71
2022/04/17 01:06:30;;;;;;;10.43;5.82;;;5.70;99.90;;;;;;5046322;28;20134;-71
2022/04/17 01:08:56;;;;;;;8.95;5.13;;;5.70;99.90;;;;;;5036327;28;20052;-71
2022/04/17 01:11:22;;;;;;;9.13;4.80;;;5.60;99.90;;;;;;5038987;28;20037;-71
2022/04/17 01:13:49;;;;;;;9.13;4.65;;;5.60;99.90;;;;;;5043652;28;20555;-71
2022/04/17 01:16:18;;;;;;;9.77;5.40;;;5.60;99.90;;;;;;5041014;28;20045;-71
2022/04/17 01:19:03;;;;;;;7.93;4.88;;;5.60;99.90;;;;;;5038020;28;20045;-71
2022/04/17 01:21:30;;;;;;;9.25;4.63;;;5.50;99.90;;;;;;5044355;28;20055;-71
2022/04/17 01:26:57;;;;;;;;;;;5.40;99.90;;;;;;5040127;28;20049;-71
2022/04/17 01:29:31;;;;;;;9.25;4.93;;;5.40;99.90;;;;;;5033085;28;19925;-71
2022/04/17 01:32:07;;;;;;;8.35;4.93;;;5.40;99.90;;;;;;5037779;28;20465;-71
2022/04/17 01:34:34;;;;;;;10.75;4.70;;;5.30;99.90;;;;;;5039195;28;20069;-71
2022/04/17 01:37:02;;;;;;;8.75;5.32;;;5.30;99.90;;;;;;5041656;28;20068;-71
2022/04/17 01:39:28;;;;;;;10.23;5.63;;;5.20;99.90;;;;;;5039336;28;20051;-71
2022/04/17 01:41:55;;;;;;;9.73;5.00;;;5.20;99.90;;;;;;5037601;28;20092;-71
2022/04/17 01:44:28;;;;;;;8.70;5.82;;;5.20;99.90;;;;;;5033929;28;20420;-71
2022/04/17 01:46:55;;;;;;;9.98;6.40;;;5.10;99.90;;;;;;5046890;28;20048;-71
2022/04/17 01:49:23;;;;;;;8.82;6.15;;;5.10;99.90;;;;;;5050227;28;20041;-71
2022/04/17 01:51:51;;;;;;;11.57;6.32;;;5.10;99.90;;;;;;5048115;28;20039;-71
2022/04/17 01:54:18;;;;;;;9.63;6.10;;;5.00;99.90;;;;;;5046629;28;20393;-71
2022/04/17 01:56:47;;;;;;;11.32;5.63;;;5.00;99.90;;;;;;5036228;28;20078;-71
2022/04/17 01:59:14;;;;;;;8.88;5.60;;;5.00;99.90;;;;;;5046560;28;20562;-71
2022/04/17 02:01:40;;;;;;;11.25;5.68;;;4.90;99.90;;;;;;5040011;28;20040;-71
2022/04/17 02:04:09;;;;;;;9.85;5.78;;;4.90;99.90;;;;;;5052378;28;20099;-71
2022/04/17 02:06:35;;;;;;;10.35;5.57;;;4.90;99.90;;;;;;5046076;28;20033;-71
2022/04/17 02:09:02;;;;;;;8.90;5.22;;;4.90;99.90;;;;;;5048526;28;20128;-71
2022/04/17 02:11:28;;;;;;;9.98;6.22;;;4.90;99.90;;;;;;5047798;28;20049;-71
2022/04/17 02:13:54;;;;;;;9.88;6.35;;;4.80;99.90;;;;;;5044902;28;20163;-71
2022/04/17 02:16:20;;;;;;;10.07;5.82;;;4.80;99.90;;;;;;5036383;28;20045;-71
2022/04/17 02:18:49;;;;;;;9.70;5.68;;;4.70;99.90;;;;;;5047159;28;20049;-71
2022/04/17 02:21:17;;;;;;;10.00;5.78;;;4.70;99.90;;;;;;5047432;28;20427;-71
2022/04/17 02:23:44;;;;;;;8.80;5.53;;;4.60;99.90;;;;;;5047225;28;20037;-71
2022/04/17 02:26:11;;;;;;;8.90;6.07;;;4.60;99.90;;;;;;5048157;28;20044;-71
2022/04/17 02:28:38;;;;;;;9.88;6.15;;;4.60;99.90;;;;;;5046668;28;20091;-71
2022/04/17 02:31:05;;;;;;;9.68;5.90;;;4.50;99.90;;;;;;5046818;28;20047;-71
2022/04/17 02:33:31;;;;;;;10.57;5.63;;;4.50;99.90;;;;;;5040676;28;20519;-71
2022/04/17 02:35:58;;;;;;;11.05;6.45;;;4.40;99.90;;;;;;5044568;28;20061;-71
2022/04/17 02:38:24;;;;;;;11.88;6.03;;;4.40;99.90;;;;;;5049395;28;20053;-70
2022/04/17 02:40:51;;;;;;;10.20;5.85;;;4.40;99.90;;;;;;5044963;28;20060;-71
2022/04/17 02:43:16;;;;;;;9.32;5.93;;;4.30;99.90;;;;;;5043702;28;20060;-71
2022/04/17 02:45:42;;;;;;;10.30;5.97;;;4.30;99.90;;;;;;5045581;28;20025;-71
2022/04/17 02:48:08;;;;;;;10.73;5.80;;;4.30;99.90;;;;;;5048790;28;20045;-71
2022/04/17 02:50:34;;;;;;;9.40;5.53;;;4.20;99.90;;;;;;5043196;28;20099;-71
2022/04/17 02:52:59;;;;;;;11.52;6.80;;;4.20;99.90;;;;;;5043106;28;20052;-71
2022/04/17 02:55:25;;;;;;;10.25;6.22;;;4.10;99.90;;;;;;5045102;28;20053;-71
2022/04/17 02:57:51;;;;;;;10.00;6.22;;;4.10;99.90;;;;;;5040209;28;20073;-71
2022/04/17 03:00:18;;;;;;;11.02;5.85;;;4.10;99.90;;;;;;5040705;28;20052;-70
2022/04/17 03:05:37;;;;;;;9.98;6.30;;;4.00;99.90;;;;;;5041889;28;20041;-71
2022/04/17 03:08:09;;;;;;;12.90;6.15;;;4.00;99.90;;;;;;5043074;28;20049;-71
2022/04/17 03:10:37;;;;;;;10.77;6.50;;;3.90;99.90;;;;;;5042728;28;20037;-71
2022/04/17 03:13:04;;;;;;;9.63;6.65;;;4.20;99.90;;;;;;5040339;28;20131;-71
2022/04/17 03:15:31;;;;;;;10.48;6.50;;;3.90;99.90;;;;;;5041507;28;20431;-71
2022/04/17 03:17:57;;;;;;;11.98;6.93;;;3.80;99.90;;;;;;5047823;28;20118;-71
2022/04/17 03:20:22;;;;;;;11.98;6.68;;;3.80;99.90;;;;;;5043953;28;20080;-70
2022/04/17 03:22:49;;;;;;;10.65;6.90;;;3.80;99.90;;;;;;5039267;28;20041;-70
2022/04/17 03:25:15;;;;;;;12.05;6.20;;;3.80;99.90;;;;;;5047292;28;20052;-71
2022/04/17 03:27:43;;;;;;;12.30;7.57;;;3.70;99.90;;;;;;5043177;28;20037;-71
2022/04/17 03:30:09;;;;;;;12.25;6.68;;;3.70;99.90;;;;;;5045186;28;20080;-70
2022/04/17 03:32:35;;;;;;;9.57;6.47;;;3.70;99.90;;;;;;5044640;28;20040;-71
2022/04/17 03:35:01;;;;;;;10.77;6.32;;;3.70;99.90;;;;;;5042531;28;20045;-71
2022/04/17 03:37:26;;;;;;;12.05;6.45;;;3.70;99.90;;;;;;5044215;28;20033;-71
2022/04/17 03:39:53;;;;;;;10.80;6.65;;;3.70;99.90;;;;;;5047947;28;20048;-70
2022/04/17 03:42:21;;;;;;;10.80;6.68;;;3.60;99.90;;;;;;5038747;28;20072;-71
2022/04/17 03:44:47;;;;;;;13.02;7.28;;;3.60;99.90;;;;;;5041648;28;20045;-71
2022/04/17 03:47:12;;;;;;;10.77;6.43;;;3.60;99.90;;;;;;5039225;28;20112;-71
2022/04/17 03:49:38;;;;;;;10.85;6.55;;;3.60;99.90;;;;;;5041082;28;20100;-71
2022/04/17 03:52:04;;;;;;;10.35;6.78;;;3.60;99.90;;;;;;5046621;28;20037;-71
2022/04/17 03:54:30;;;;;;;12.80;7.60;;;3.60;99.90;;;;;;5041373;28;20044;-71
2022/04/17 03:56:56;;;;;;;12.73;7.45;;;3.60;99.90;;;;;;5045097;28;20041;-71
2022/04/17 03:59:21;;;;;;;13.43;6.75;;;3.60;99.90;;;;;;5040635;28;20056;-71
2022/04/17 04:01:47;;;;;;;10.77;6.53;;;3.60;99.90;;;;;;5043355;28;20461;-71
2022/04/17 04:04:14;;;;;;;11.65;7.32;;;3.50;99.90;;;;;;5041850;28;20060;-71
2022/04/17 04:06:42;;;;;;;14.98;7.57;;;3.50;99.90;;;;;;5041680;28;20037;-71
2022/04/17 04:09:08;;;;;;;14.10;7.03;;;3.50;99.90;;;;;;5043066;28;20072;-71
2022/04/17 04:11:33;;;;;;;12.90;7.22;;;3.50;99.90;;;;;;5041341;28;20037;-71
2022/04/17 04:13:59;;;;;;;11.90;7.15;;;3.40;99.90;;;;;;5039629;28;20083;-71
2022/04/17 04:16:24;;;;;;;12.60;6.80;;;3.40;99.90;;;;;;5046942;28;20049;-71
2022/04/17 04:18:50;;;;;;;12.13;7.22;;;3.30;99.90;;;;;;5042017;28;20079;-71
2022/04/17 04:21:19;;;;;;;11.98;7.80;;;3.30;99.90;;;;;;5047767;28;20037;-70
2022/04/17 04:23:44;;;;;;;11.88;7.47;;;3.30;99.90;;;;;;5044628;28;20033;-71
2022/04/17 04:26:10;;;;;;;11.20;7.28;;;3.30;99.90;;;;;;5040737;28;20079;-71
2022/04/17 04:28:38;;;;;;;11.65;6.55;;;3.20;99.90;;;;;;5040955;28;20072;-71
2022/04/17 04:31:11;;;;;;;13.45;7.30;;;3.80;99.90;;;;;;5044783;28;20124;-70
2022/04/17 04:33:39;;;;;;;14.57;8.32;;;3.20;99.90;;;;;;5034829;28;20567;-71
2022/04/17 04:36:06;;;;;;;13.68;8.43;;;3.20;99.90;;;;;;5045964;28;20037;-72
2022/04/17 04:38:34;;;;;;;12.90;8.05;;;3.10;99.90;;;;;;5047886;28;20408;-72
2022/04/17 04:40:59;;;;;;;13.32;7.35;;;3.10;99.90;;;;;;5039114;28;20098;-72
2022/04/17 04:43:28;;;;;;;14.10;9.13;;;3.10;99.90;;;;;;5042203;28;20049;-72
2022/04/17 04:46:09;;;;;;;12.07;8.18;;;3.10;99.90;;;;;;5050277;28;20037;-72
2022/04/17 04:51:25;;;;;;;13.68;8.82;;;3.10;99.90;;;;;;5051309;28;20046;-72
2022/04/17 04:53:52;;;;;;;14.20;7.93;;;3.10;99.90;;;;;;5047446;28;20123;-70
2022/04/17 04:56:18;;;;;;;13.32;9.07;;;3.10;99.90;;;;;;5043097;28;20473;-70
2022/04/17 04:58:45;;;;;;;15.52;8.50;;;3.20;99.90;;;;;;5042422;28;20045;-70
2022/04/17 05:01:12;;;;;;;13.52;8.57;;;3.10;99.90;;;;;;5045432;28;20400;-70
2022/04/17 05:03:38;;;;;;;15.07;9.75;;;3.20;99.90;;;;;;5046288;28;20044;-70
2022/04/17 05:06:04;;;;;;;14.82;9.02;;;3.20;99.90;;;;;;5034232;28;20041;-70
2022/04/17 05:08:30;;;;;;;15.52;9.20;;;3.20;99.90;;;;;;5038345;28;20053;-70
2022/04/17 05:10:56;;;;;;;14.57;10.15;;;3.30;99.90;;;;;;5039360;28;20034;-70
2022/04/17 05:13:21;;;;;;;12.50;9.20;;;3.30;99.90;;;;;;5036566;28;20045;-70
2022/04/17 05:15:47;;;;;;;15.27;10.05;;;3.40;99.90;;;;;;5037064;28;20038;-70
2022/04/17 05:18:13;;;;;;;15.85;9.95;;;3.40;99.90;;;;;;5043946;28;20044;-70
2022/04/17 05:20:39;;;;;;;16.15;10.10;;;3.50;99.90;;;;;;5046925;28;20384;-70
2022/04/17 05:23:17;;;;;;;16.00;10.05;;;3.50;99.90;;;;;;5047402;28;20037;-70
2022/04/17 05:25:47;;;;;;;13.23;9.25;;;3.60;99.90;;;;;;5043876;28;20045;-70
2022/04/17 05:28:14;;;;;;;17.05;10.70;;;3.70;99.90;;;;;;5045036;28;20041;-70
2022/04/17 05:30:40;;;;;;;14.63;10.05;;;3.70;99.90;;;;;;5044315;28;20041;-70
2022/04/17 05:33:07;;;;;;;16.23;11.20;;;3.80;99.90;;;;;;5046888;28;20512;-70
2022/04/17 05:35:33;;;;;;;14.02;10.48;;;3.80;99.90;;;;;;5039048;28;20482;-70
2022/04/17 05:37:59;;;;;;;14.90;10.18;;;3.80;99.90;;;;;;5047943;28;20120;-70
2022/04/17 05:40:24;;;;;;;16.13;10.45;;;3.90;99.90;;;;;;5049480;28;20098;-70
2022/04/17 05:42:50;;;;;;;14.05;9.85;;;3.90;99.90;;;;;;5045594;28;20076;-70
2022/04/17 05:45:16;;;;;;;15.73;10.65;;;4.00;99.90;;;;;;5046437;28;20048;-70
2022/04/17 05:47:42;;;;;;;15.95;10.70;;;4.00;99.90;;;;;;5050960;28;20045;-70
2022/04/17 05:50:08;;;;;;;17.00;11.43;;;4.00;99.90;;;;;;5052323;28;20101;-70
2022/04/17 05:52:34;;;;;;;17.77;10.82;;;4.10;99.90;;;;;;5049280;28;20056;-71
2022/04/17 05:55:00;;;;;;;15.48;11.30;;;4.10;99.90;;;;;;5051608;28;20048;-70
2022/04/17 05:57:26;;;;;;;17.10;11.38;;;4.20;99.90;;;;;;5053165;28;20056;-71
2022/04/17 05:59:52;;;;;;;15.02;10.70;;;4.20;99.90;;;;;;5055139;28;20044;-71
2022/04/17 06:02:18;;;;;;;16.58;11.52;;;4.30;99.90;;;;;;5052769;28;20122;-70
2022/04/17 06:04:43;;;;;;;14.60;10.45;;;4.30;99.90;;;;;;5054128;28;20048;-70
2022/04/17 06:07:09;;;;;;;16.25;10.80;;;4.40;99.90;;;;;;5057113;28;20052;-70
2022/04/17 06:09:35;;;;;;;16.88;11.30;;;4.40;99.90;;;;;;5054170;28;20049;-70
2022/04/17 06:12:01;;;;;;;18.75;11.43;;;4.50;99.90;;;;;;5052876;28;20561;-70
2022/04/17 06:14:27;;;;;;;16.58;11.20;;;4.50;99.90;;;;;;5052526;28;20048;-70
2022/04/17 06:16:53;;;;;;;15.95;10.82;;;4.60;99.90;;;;;;5053351;28;20072;-71
2022/04/17 06:19:18;;;;;;;16.52;11.27;;;4.60;99.90;;;;;;5053142;28;20056;-71
2022/04/17 06:21:44;;;;;;;17.73;11.20;;;4.70;99.90;;;;;;5053070;28;20083;-71
2022/04/17 06:24:09;;;;;;;17.45;10.95;;;4.70;99.90;;;;;;5053052;28;20072;-70
2022/04/17 06:26:35;;;;;;;16.17;10.85;;;4.80;99.90;;;;;;5044526;28;20407;-71
2022/04/17 06:29:05;;;;;;;15.45;10.85;;;4.90;99.90;;;;;;5053129;28;20489;-70
2022/04/17 06:31:31;;;;;;;18.33;11.38;;;5.00;99.90;;;;;;5052801;28;20049;-71
2022/04/17 06:33:57;;;;;;;19.67;12.43;;;5.10;99.90;;;;;;5058265;28;20512;-70
2022/04/17 06:36:22;;;;;;;15.40;11.05;;;5.30;99.90;;;;;;5052947;28;20132;-70
2022/04/17 06:38:48;;;;;;;15.77;11.43;;;5.40;99.90;;;;;;5051880;28;20080;-70
2022/04/17 06:41:13;;;;;;;17.60;11.93;;;5.60;99.90;;;;;;5052414;28;20053;-70
2022/04/17 06:43:39;;;;;;;17.40;11.40;;;5.70;99.90;;;;;;5060739;28;20068;-71
2022/04/17 06:46:04;;;;;;;17.58;11.55;;;5.80;99.90;;;;;;5056007;28;20041;-71
2022/04/17 06:48:30;;;;;;;19.27;11.70;;;5.80;99.90;;;;;;5054580;28;20033;-71
2022/04/17 06:50:56;;;;;;;17.42;11.63;;;5.90;99.90;;;;;;5054685;28;20159;-71
2022/04/17 06:53:22;;;;;;;13.38;11.00;;;6.00;99.90;;;;;;5052473;28;20124;-71
2022/04/17 06:55:48;;;;;;;19.42;12.45;;;6.10;99.90;;;;;;5050065;28;20120;-71
2022/04/17 06:58:18;;;;;;;15.52;11.15;;;6.30;99.90;;;;;;5052472;28;20151;-71
2022/04/17 07:00:43;;;;;;;15.82;10.88;;;6.30;99.90;;;;;;5054266;28;20045;-72
2022/04/17 07:03:09;;;;;;;18.88;10.95;;;6.40;99.90;;;;;;5058098;28;20033;-74
2022/04/17 07:05:35;;;;;;;16.70;10.63;;;6.50;99.90;;;;;;5052615;28;20426;-73
2022/04/17 07:08:02;;;;;;;16.52;10.80;;;6.60;99.90;;;;;;5057405;28;20102;-73
2022/04/17 07:10:29;;;;;;;18.13;10.75;;;6.70;99.90;;;;;;5048038;28;20045;-72
2022/04/17 07:12:55;;;;;;;19.98;11.13;;;6.80;99.90;;;;;;5052023;28;20073;-72
2022/04/17 07:15:21;;;;;;;16.77;11.15;;;6.90;99.90;;;;;;5051975;28;20080;-73
2022/04/17 07:17:47;;;;;;;17.55;10.63;;;7.00;99.90;;;;;;5054306;28;20110;-71
2022/04/17 07:20:15;;;;;;;16.83;11.00;;;7.00;99.90;;;;;;5059316;28;20040;-71
2022/04/17 07:22:41;;;;;;;17.15;10.90;;;7.00;99.90;;;;;;5050593;28;20041;-71
2022/04/17 07:25:08;;;;;;;15.82;10.63;;;7.10;99.90;;;;;;5056310;28;20041;-71
2022/04/17 07:27:36;;;;;;;15.40;10.45;;;7.20;99.90;;;;;;5050292;28;20086;-71
2022/04/17 07:30:03;;;;;;;17.33;10.98;;;7.20;99.90;;;;;;5048985;28;20049;-71
2022/04/17 07:32:30;;;;;;;15.40;10.90;;;7.30;99.90;;;;;;5052927;28;20052;-71
2022/04/17 07:34:56;;;;;;;15.60;10.63;;;7.40;99.90;;;;;;5056989;28;20087;-71
2022/04/17 07:37:28;;;;;;;14.55;10.30;;;7.50;99.90;;;;;;5042744;28;20052;-70
2022/04/17 07:39:54;;;;;;;14.07;9.82;;;7.60;99.90;;;;;;5033483;28;20409;-70
2022/04/17 07:42:20;;;;;;;17.88;10.48;;;7.60;99.90;;;;;;5045292;28;20044;-70
2022/04/17 07:44:48;;;;;;;16.55;9.93;;;7.70;99.90;;;;;;5050807;28;20053;-71
2022/04/17 07:47:13;;;;;;;13.85;8.90;;;7.80;99.90;;;;;;5049102;28;20055;-71
2022/04/17 07:49:39;;;;;;;13.55;8.07;;;7.90;99.90;;;;;;5056062;28;20392;-71
2022/04/17 07:52:05;;;;;;;14.95;8.43;;;8.00;99.90;;;;;;5048360;28;20049;-71
2022/04/17 07:54:30;;;;;;;14.45;8.80;;;7.80;99.90;;;;;;5050117;28;20102;-69
2022/04/17 07:56:56;;;;;;;18.25;8.68;;;8.30;99.90;;;;;;5044211;28;20439;-73
2022/04/17 07:59:24;;;;;;;14.00;8.52;;;8.40;99.90;;;;;;5050402;28;20110;-71
2022/04/17 08:01:50;;;;;;;11.82;7.47;;;8.50;99.90;;;;;;5055300;28;20542;-71
2022/04/17 08:04:16;;;;;;;12.00;7.22;;;8.60;99.90;;;;;;5051180;28;20041;-71
2022/04/17 08:06:42;;;;;;;15.20;8.32;;;8.80;99.90;;;;;;5050083;28;20072;-72
2022/04/17 08:09:07;;;;;;;13.13;7.70;;;8.90;99.90;;;;;;5051728;28;20472;-73
2022/04/17 08:11:34;;;;;;;12.80;7.25;;;9.00;99.90;;;;;;5042777;28;20049;-73
2022/04/17 08:13:59;;;;;;;11.82;7.38;;;9.10;99.90;;;;;;5048339;28;20082;-73
2022/04/17 08:16:25;;;;;;;12.02;6.95;;;9.20;99.90;;;;;;5051235;28;20040;-73
2022/04/17 08:18:50;;;;;;;10.43;6.93;;;9.30;99.90;;;;;;5052647;28;20041;-73
2022/04/17 08:21:16;;;;;;;12.10;7.47;;;9.50;99.90;;;;;;5047769;28;20052;-73
2022/04/17 08:23:42;;;;;;;10.43;6.72;;;9.60;99.90;;;;;;5049939;28;20045;-73
2022/04/17 08:26:07;;;;;;;11.32;7.22;;;9.70;99.90;;;;;;5049631;28;20064;-73
2022/04/17 08:28:33;;;;;;;11.75;7.15;;;9.80;99.90;;;;;;5050336;28;20045;-73
2022/04/17 08:30:59;;;;;;;12.63;6.88;;;10.00;99.90;;;;;;5049745;28;20123;-73
2022/04/17 08:33:26;;;;;;;9.95;6.85;;;10.10;99.90;;;;;;5048544;28;20045;-73
2022/04/17 08:35:53;;;;;;;11.75;6.22;;;10.30;99.30;;;;;;5049910;28;20044;-72
2022/04/17 08:38:19;;;;;;;12.15;7.38;;;10.40;99.80;;;;;;5048691;28;20073;-73
2022/04/17 08:40:45;;;;;;;10.82;6.63;;;10.60;98.60;;;;;;5048994;28;20397;-73
2022/04/17 08:43:11;;;;;;;9.77;6.30;;;10.70;99.20;;;;;;5046056;28;20041;-74
2022/04/17 08:45:37;;;;;;;11.98;7.13;;;10.90;97.60;;;;;;5036937;28;20091;-72
2022/04/17 08:48:03;;;;;;;11.43;6.93;;;11.00;97.10;;;;;;5042668;28;20461;-72
2022/04/17 08:50:30;;;;;;;10.38;6.65;;;11.20;96.70;;;;;;5053337;28;20072;-72
2022/04/17 08:52:58;;;;;;;12.60;5.82;;;11.30;96.60;;;;;;5049826;28;20044;-72
2022/04/17 08:55:24;;;;;;;11.40;6.28;;;11.40;95.60;;;;;;5049014;28;20162;-72
2022/04/17 08:57:50;;;;;;;11.30;6.45;;;11.50;95.80;;;;;;5047691;28;20075;-73
2022/04/17 09:00:17;;;;;;;12.88;6.55;;;11.70;95.70;;;;;;5050084;28;20036;-73
2022/04/17 09:02:43;;;;;;;9.88;6.97;;;11.90;95.20;;;;;;5048742;28;20040;-73
2022/04/17 09:05:11;;;;;;;11.45;6.72;;;12.00;94.40;;;;;;5048282;28;20053;-73
2022/04/17 09:07:51;;;;;;;10.65;6.50;;;12.10;94.10;;;;;;5048714;28;20037;-73
2022/04/17 09:10:55;;;;;;;10.00;6.10;;;12.30;94.30;;;;;;5046071;28;20045;-73
2022/04/17 09:13:32;;;;;;;14.90;6.45;;;12.40;92.80;;;;;;5050507;28;20057;-73
2022/04/17 09:15:58;;;;;;;10.38;6.63;;;12.50;92.30;;;;;;5049583;28;20051;-73
2022/04/17 09:18:27;;;;;;;11.00;6.28;;;12.60;93.10;;;;;;5048748;28;20052;-73
2022/04/17 09:20:52;;;;;;;9.75;6.30;;;12.80;92.50;;;;;;5044149;28;20107;-73
2022/04/17 09:23:38;;;;;;;16.60;6.60;;;13.00;92.10;;;;;;5040383;28;20095;-73
2022/04/17 09:26:08;;;;;;;10.30;6.57;;;13.10;92.30;;;;;;5050233;28;20118;-73
2022/04/17 09:28:37;;;;;;;11.02;5.95;;;13.20;91.20;;;;;;5049834;28;20760;-74
2022/04/17 09:31:13;;;;;;;10.90;6.18;;;13.30;90.40;;;;;;5048361;28;20033;-74
2022/04/17 09:33:41;;;;;;;11.95;6.30;;;13.40;90.40;;;;;;5048713;28;20045;-73
2022/04/17 09:36:08;;;;;;;9.70;5.88;;;13.50;90.70;;;;;;5042072;28;20048;-73
2022/04/17 09:38:34;;;;;;;11.45;5.32;;;13.70;90.40;;;;;;5041745;28;20041;-73
2022/04/17 09:41:15;;;;;;;9.98;5.80;;;13.80;89.70;;;;;;5045232;28;20480;-74
2022/04/17 09:43:42;;;;;;;8.38;5.65;;;13.90;84.30;;;;;;5047827;28;20048;-73
2022/04/17 09:46:09;;;;;;;8.57;5.60;;;14.00;86.00;;;;;;5048961;28;20060;-73
2022/04/17 09:48:40;;;;;;;8.85;5.10;;;14.10;84.90;;;;;;5046909;28;20049;-74
2022/04/17 09:51:27;;;;;;;10.35;5.47;;;14.30;83.20;;;;;;5055361;28;20033;-74
2022/04/17 09:54:05;;;;;;;9.70;5.07;;;14.40;80.20;;;;;;5044447;28;20106;-74
2022/04/17 09:56:43;;;;;;;9.73;5.65;;;14.60;81.40;;;;;;5046472;28;20036;-74
2022/04/17 09:59:17;;;;;;;13.52;5.93;;;14.60;81.10;;;;;;5046627;28;20053;-74
2022/04/17 10:01:50;;;;;;;8.35;4.40;;;14.70;81.20;;;;;;5049409;28;20847;-75
2022/04/17 10:04:19;;;;;;;8.70;4.78;;;14.90;81.40;;;;;;5047532;28;20041;-74
2022/04/17 10:06:46;;;;;;;7.80;4.78;;;15.10;78.00;;;;;;5049228;28;20044;-74
2022/04/17 10:09:13;;;;;;;11.65;5.20;;;15.20;75.70;;;;;;5048373;28;20114;-72
2022/04/17 10:11:40;;;;;;;7.75;4.80;;;15.30;77.70;;;;;;5048338;28;20597;-73
2022/04/17 10:14:06;;;;;;;8.80;4.88;;;15.40;75.80;;;;;;5047784;28;20053;-73
2022/04/17 10:16:33;;;;;;;9.23;5.03;;;15.50;75.50;;;;;;5046946;28;20072;-73
2022/04/17 10:19:09;;;;;;;9.68;6.35;;;15.60;76.00;;;;;;5047085;28;20045;-73
2022/04/17 10:21:36;;;;;;;9.82;6.00;;;15.70;76.40;;;;;;5048083;28;20045;-73
2022/04/17 10:24:04;;;;;;;9.75;5.85;;;15.80;76.10;;;;;;5050965;28;20033;-73
2022/04/17 10:26:37;;;;;;;7.65;5.30;;;15.90;74.80;;;;;;5052787;28;20048;-73
2022/04/17 10:29:06;;;;;;;9.30;5.85;;;16.00;75.40;;;;;;5053217;28;20037;-73
2022/04/17 10:32:04;;;;;;;11.27;5.43;;;16.00;74.40;;;;;;5053177;28;20121;-73
2022/04/17 10:34:51;;;;;;;11.05;5.72;;;16.10;74.10;;;;;;5033466;28;20124;-73
2022/04/17 10:37:46;;;;;;;7.90;5.45;;;16.30;73.30;;;;;;5053068;28;20040;-73
2022/04/17 10:40:12;;;;;;;8.63;4.90;;;16.30;69.80;;;;;;5048747;28;20045;-72
2022/04/17 10:42:55;;;;;;;7.60;4.10;;;16.40;67.10;;;;;;5055023;28;20069;-73
2022/04/17 10:45:22;;;;;;;8.15;4.47;;;16.40;68.50;;;;;;5046016;28;20041;-73
2022/04/17 10:48:09;;;;;;;6.35;3.60;;;16.50;66.50;;;;;;5051905;28;20037;-73
2022/04/17 10:50:49;;;;;;;6.93;3.95;;;16.60;66.00;;;;;;5055088;28;20041;-73
2022/04/17 10:53:26;;;;;;;7.00;4.30;;;16.70;66.50;;;;;;5052597;28;20526;-73
2022/04/17 10:56:05;;;;;;;7.78;3.72;;;16.80;66.70;;;;;;5044773;28;20116;-75
2022/04/17 10:58:48;;;;;;;7.10;3.97;;;17.00;65.00;;;;;;5050695;28;20061;-73
2022/04/17 11:01:14;;;;;;;5.68;3.67;;;17.00;63.50;;;;;;5047124;28;20056;-72
2022/04/17 11:03:52;;;;;;;7.38;4.90;;;17.10;62.90;;;;;;5051822;28;20040;-71
2022/04/17 11:06:32;;;;;;;6.80;4.28;;;17.10;63.30;;;;;;5054163;28;20045;-71
2022/04/17 11:09:12;;;;;;;6.82;3.97;;;17.20;62.80;;;;;;5050708;28;20512;-73
2022/04/17 11:11:39;;;;;;;7.22;4.30;;;17.30;62.90;;;;;;5051080;28;20102;-73
2022/04/17 11:14:14;;;;;;;6.50;3.92;;;17.30;61.10;;;;;;5049563;28;20087;-72
2022/04/17 11:16:53;;;;;;;6.93;4.07;;;17.40;61.10;;;;;;5049884;28;20546;-74
2022/04/17 11:19:39;;;;;;;6.57;3.58;;;17.50;62.80;;;;;;5050504;28;20052;-70
2022/04/17 11:22:08;;;;;;;7.28;3.63;;;17.60;62.60;;;;;;5051011;28;20041;-74
2022/04/17 11:24:55;;;;;;;5.80;3.20;;;17.80;60.00;;;;;;5051521;28;20387;-74
2022/04/17 11:27:40;;;;;;;7.03;4.05;;;17.90;58.10;;;;;;5049623;28;20048;-74
2022/04/17 11:30:08;;;;;;;7.80;3.63;;;18.00;56.20;;;;;;5051864;28;20086;-74
2022/04/17 11:32:35;;;;;;;6.95;4.07;;;18.00;59.30;;;;;;5050639;28;20480;-74
2022/04/17 11:35:03;;;;;;;6.28;4.28;;;18.20;57.90;;;;;;5050186;28;20787;-74
2022/04/17 11:37:30;;;;;;;6.60;4.15;;;18.20;57.80;;;;;;5050492;28;20043;-74
2022/04/17 11:39:58;;;;;;;6.32;4.30;;;18.40;58.30;;;;;;5051638;28;20044;-74
2022/04/17 11:42:28;;;;;;;7.57;4.30;;;18.50;58.40;;;;;;5042555;28;20052;-74
2022/04/17 11:44:59;;;;;;;8.48;4.53;;;18.50;57.30;;;;;;5051511;28;20094;-74
2022/04/17 11:47:25;;;;;;;7.43;4.25;;;18.60;58.20;;;;;;5052152;28;20045;-74
2022/04/17 11:49:51;;;;;;;7.75;4.22;;;18.60;53.70;;;;;;5053967;28;20503;-74
2022/04/17 11:52:18;;;;;;;6.22;3.83;;;18.70;56.20;;;;;;5052331;28;20044;-74
2022/04/17 11:54:45;;;;;;;7.10;4.00;;;18.70;56.90;;;;;;5050601;28;20150;-74
2022/04/17 11:57:12;;;;;;;8.68;4.30;;;18.80;58.10;;;;;;5046298;28;20037;-74
2022/04/17 11:59:45;;;;;;;8.13;4.30;;;19.00;55.30;;;;;;5051287;28;20056;-74
2022/04/17 12:02:16;;;;;;;7.27;4.33;;;19.00;56.10;;;;;;5051865;28;20098;-74
2022/04/17 12:04:47;;;;;;;6.40;4.07;;;19.00;55.30;;;;;;5050941;28;20033;-74
2022/04/17 12:07:14;;;;;;;7.28;3.75;;;19.10;53.10;;;;;;5050606;28;20389;-74
2022/04/17 12:09:40;;;;;;;7.03;4.45;;;19.10;54.00;;;;;;5045075;28;20095;-74
2022/04/17 12:12:12;;;;;;;6.05;4.35;;;19.20;54.40;;;;;;5051223;28;20119;-74
2022/04/17 12:14:38;;;;;;;7.30;4.80;;;19.30;54.10;;;;;;5051286;28;20049;-74
2022/04/17 12:17:05;;;;;;;6.78;4.40;;;19.40;55.40;;;;;;5049858;28;20047;-74
2022/04/17 12:19:31;;;;;;;8.20;5.30;;;19.60;53.40;;;;;;5050412;28;20041;-74
2022/04/17 12:21:56;;;;;;;9.48;5.47;;;19.50;52.40;;;;;;5050073;28;20043;-74
2022/04/17 12:24:22;;;;;;;8.52;5.10;;;19.50;53.40;;;;;;5042163;28;20048;-74
2022/04/17 12:26:49;;;;;;;7.95;5.38;;;19.50;53.60;;;;;;5049182;28;20064;-74
2022/04/17 12:29:15;;;;;;;7.18;4.93;;;19.50;53.40;;;;;;5051403;28;20059;-74
2022/04/17 12:31:41;;;;;;;7.63;4.95;;;19.50;54.00;;;;;;5051040;28;20036;-73
2022/04/17 12:34:13;;;;;;;8.60;5.15;;;19.60;53.50;;;;;;5049118;28;20404;-74
2022/04/17 12:36:40;;;;;;;9.50;5.47;;;19.70;53.40;;;;;;5049458;28;20788;-74
2022/04/17 12:39:06;;;;;;;7.63;4.95;;;19.70;52.80;;;;;;5049039;28;20128;-74
2022/04/17 12:41:42;;;;;;;7.90;4.75;;;19.80;53.00;;;;;;5045414;28;20136;-74
2022/04/17 12:44:11;;;;;;;9.15;5.35;;;19.70;50.60;;;;;;5051192;28;20404;-74
2022/04/17 12:46:42;;;;;;;10.95;5.13;;;19.70;51.20;;;;;;5048049;28;20056;-74
2022/04/17 12:49:09;;;;;;;7.70;4.82;;;19.70;51.40;;;;;;5049272;28;20029;-74
2022/04/17 12:51:39;;;;;;;7.88;4.80;;;19.70;52.50;;;;;;5053073;28;20029;-74
2022/04/17 12:54:12;;;;;;;9.73;4.93;;;19.90;52.30;;;;;;5049089;28;20107;-74
2022/04/17 12:56:38;;;;;;;6.05;4.03;;;19.90;51.20;;;;;;5048887;28;20040;-73
2022/04/17 12:59:04;;;;;;;6.60;4.43;;;20.00;51.20;;;;;;5056355;28;20072;-74